Caribbean Galaxy — 3EZV4 — position and weather

sailwx.info

Track history (hours):
 
Tides and Currents Weather Stations Pressure Air Temp Water Temp Dewpoint Dewpoint Depression Visibility Wind Speed Wind Dir Waves Ship Positions

Caribbean Galaxy

Last reported at 2015-Apr-11 08:33 UTC. Time now 2015-May-06 03:24 UTC.
Position N 30°21' E 124°00'.
Warning: this ship's position is 24 days out of date.

Length 246 m; draft 8 m.

Type: Tanker. MMSI: 357449000.

Date/timePositionNaut miles runAvg speedWind from/ knotsBaromVisibWave heightAir tempDewpointWater temp
2015-Apr-11 08:33N 30°21' E 124°00'1212.2
2015-Apr-11 07:33N 30°32' E 123°58'1211.7
2015-Apr-11 06:33N 30°44' E 123°55'5911.4
2015-Apr-11 01:20N 31°43' E 124°00'4311.3
2015-Apr-10 21:29N 32°27' E 124°00'1010.6
2015-Apr-10 20:33N 32°37' E 123°59'1110.4
2015-Apr-10 19:32N 32°47' E 123°58'1110.4
2015-Apr-10 18:27N 32°58' E 123°57'1311.0
2015-Apr-10 17:16N 33°11' E 123°59'911.4
2015-Apr-10 16:30N 33°20' E 123°59'2612.1
2015-Apr-10 14:23N 33°46' E 124°03'1112.9
2015-Apr-10 13:33N 33°56' E 124°01'1512.8
2015-Apr-10 12:22N 34°11' E 124°00'1112.7
2015-Apr-10 11:32N 34°22' E 124°01'1312.8
2015-Apr-10 10:32N 34°35' E 124°01'1412.4
2015-Apr-10 09:25N 34°48' E 123°59'2711.7
2015-Apr-10 07:07N 35°15' E 123°59'711.6
2015-Apr-10 06:33N 35°22' E 123°59'1311.8
2015-Apr-10 05:25N 35°35' E 123°59'1613.4
2015-Apr-10 04:14N 35°51' E 123°60'913.6
2015-Apr-10 03:32N 36°01' E 124°00'1313.5
2015-Apr-10 02:32N 36°14' E 124°01'1912.8
2015-Apr-10 01:05N 36°33' E 123°60'712.5
2015-Apr-10 00:32N 36°40' E 123°60'1212.4
2015-Apr-09 23:33N 36°52' E 123°59'1312.4
2015-Apr-09 22:30N 37°05' E 124°01'1212.7
2015-Apr-09 21:32N 37°17' E 124°01'1313.5
2015-Apr-09 20:33N 37°30' E 123°60'1414.2
2015-Apr-09 19:33N 37°44' E 123°57'1414.2
2015-Apr-09 18:33N 37°57' E 123°48'1413.9
2015-Apr-09 17:33N 38°05' E 123°33'1313.4
2015-Apr-09 16:33N 38°12' E 123°19'1513.0
2015-Apr-09 15:22N 38°21' E 123°03'1212.8
2015-Apr-09 14:28N 38°28' E 122°51'48 4.8
2015-Apr-09 04:24N 38°56' E 122°02'4 0.9
2015-Apr-09 00:16N 38°53' E 122°03'6 0.1
2015-Apr-06 23:20N 38°54' E 121°56'6 7.3
2015-Apr-06 22:31N 38°49' E 122°01'  
Track history (hours):
 
Tides and Currents Weather Stations Pressure Air Temp Water Temp Dewpoint Dewpoint Depression Visibility Wind Speed Wind Dir Waves Ship Positions

Caribbean Galaxy

Last reported at 2015-Apr-11 08:33 UTC. Time now 2015-May-06 03:24 UTC.
Position N 30°21' E 124°00'.
Warning: this ship's position is 24 days out of date.

Length 246 m; draft 8 m.

Type: Tanker. MMSI: 357449000.

Date/timePositionNaut miles runAvg speedWind from/ knotsBaromVisibWave heightAir tempDewpointWater temp
2015-Apr-11 08:33N 30°21' E 124°00'1212.2
2015-Apr-11 07:33N 30°32' E 123°58'1211.7
2015-Apr-11 06:33N 30°44' E 123°55'5911.4
2015-Apr-11 01:20N 31°43' E 124°00'4311.3
2015-Apr-10 21:29N 32°27' E 124°00'1010.6
2015-Apr-10 20:33N 32°37' E 123°59'1110.4
2015-Apr-10 19:32N 32°47' E 123°58'1110.4
2015-Apr-10 18:27N 32°58' E 123°57'1311.0
2015-Apr-10 17:16N 33°11' E 123°59'911.4
2015-Apr-10 16:30N 33°20' E 123°59'2612.1
2015-Apr-10 14:23N 33°46' E 124°03'1112.9
2015-Apr-10 13:33N 33°56' E 124°01'1512.8
2015-Apr-10 12:22N 34°11' E 124°00'1112.7
2015-Apr-10 11:32N 34°22' E 124°01'1312.8
2015-Apr-10 10:32N 34°35' E 124°01'1412.4
2015-Apr-10 09:25N 34°48' E 123°59'2711.7
2015-Apr-10 07:07N 35°15' E 123°59'711.6
2015-Apr-10 06:33N 35°22' E 123°59'1311.8
2015-Apr-10 05:25N 35°35' E 123°59'1613.4
2015-Apr-10 04:14N 35°51' E 123°60'913.6
2015-Apr-10 03:32N 36°01' E 124°00'1313.5
2015-Apr-10 02:32N 36°14' E 124°01'1912.8
2015-Apr-10 01:05N 36°33' E 123°60'712.5
2015-Apr-10 00:32N 36°40' E 123°60'1212.4
2015-Apr-09 23:33N 36°52' E 123°59'1312.4
2015-Apr-09 22:30N 37°05' E 124°01'1212.7
2015-Apr-09 21:32N 37°17' E 124°01'1313.5
2015-Apr-09 20:33N 37°30' E 123°60'1414.2
2015-Apr-09 19:33N 37°44' E 123°57'1414.2
2015-Apr-09 18:33N 37°57' E 123°48'1413.9
2015-Apr-09 17:33N 38°05' E 123°33'1313.4
2015-Apr-09 16:33N 38°12' E 123°19'1513.0
2015-Apr-09 15:22N 38°21' E 123°03'1212.8
2015-Apr-09 14:28N 38°28' E 122°51'48 4.8
2015-Apr-09 04:24N 38°56' E 122°02'4 0.9
2015-Apr-09 00:16N 38°53' E 122°03'6 0.1
2015-Apr-06 23:20N 38°54' E 121°56'6 7.3
2015-Apr-06 22:31N 38°49' E 122°01'  

Dump ship's entire track history